Time;durP1;ratioP1;P1;durP2;ratioP2;P2;SDS_P1;SDS_P2;PMS_P1;PMS_P2;Temp;Humidity;BMP_temperature;BMP_pressure;BME280_temperature;BME280_humidity;BME280_pressure;Samples;Min_cycle;Max_cycle;Signal;HPM_P1;HPM_P2
2022/12/08 00:01:15;;;;;;;4.87;3.50;;;7.60;86.50;;;;;;5052667;28;20032;-66
2022/12/08 00:03:41;;;;;;;4.67;3.37;;;7.60;87.10;;;;;;5052431;28;20045;-66
2022/12/08 00:09:23;;;;;;;4.90;3.57;;;7.60;87.20;;;;;;5053026;28;20112;-67
2022/12/08 00:11:58;;;;;;;5.37;3.53;;;7.50;87.00;;;;;;5054862;28;20037;-66
2022/12/08 00:14:30;;;;;;;4.63;3.30;;;7.60;87.30;;;;;;5056840;28;20491;-66
2022/12/08 00:16:57;;;;;;;5.03;3.40;;;7.60;87.70;;;;;;5056391;28;20546;-66
2022/12/08 00:19:23;;;;;;;5.83;3.40;;;7.50;87.50;;;;;;5038475;28;20267;-66
2022/12/08 00:21:50;;;;;;;4.57;3.07;;;7.60;87.30;;;;;;5056317;28;20032;-66
2022/12/08 00:24:16;;;;;;;4.07;3.20;;;7.60;87.60;;;;;;5056298;28;20037;-66
2022/12/08 00:26:42;;;;;;;5.13;3.60;;;7.60;87.50;;;;;;5056292;28;20110;-66
2022/12/08 00:29:08;;;;;;;4.90;3.20;;;7.70;87.20;;;;;;5056226;28;20475;-66
2022/12/08 00:31:34;;;;;;;4.50;3.20;;;7.70;86.70;;;;;;5056219;28;20025;-66
2022/12/08 00:34:00;;;;;;;4.33;3.10;;;7.70;86.70;;;;;;5056167;28;20021;-66
2022/12/08 00:36:26;;;;;;;3.50;2.50;;;7.80;86.50;;;;;;5055769;28;20103;-65
2022/12/08 00:38:52;;;;;;;3.83;2.80;;;7.80;86.20;;;;;;5055725;28;20029;-66
2022/12/08 00:44:07;;;;;;;3.63;2.83;;;7.90;86.30;;;;;;5055962;28;20179;-66
2022/12/08 00:46:32;;;;;;;4.10;3.20;;;7.90;85.90;;;;;;5056111;28;20542;-66
2022/12/08 00:48:58;;;;;;;5.30;3.17;;;8.00;85.70;;;;;;5055963;28;20100;-66
2022/12/08 00:51:24;;;;;;;4.50;3.23;;;8.00;86.00;;;;;;5055604;28;20079;-66
2022/12/08 00:53:49;;;;;;;5.70;2.77;;;8.00;86.00;;;;;;5055748;28;20403;-66
2022/12/08 00:56:15;;;;;;;3.47;2.53;;;8.00;85.70;;;;;;5055664;28;20444;-66
2022/12/08 00:58:41;;;;;;;7.23;3.10;;;8.00;85.40;;;;;;5055839;28;20033;-66
2022/12/08 01:01:11;;;;;;;4.17;2.90;;;8.00;85.60;;;;;;5037187;28;20052;-64
2022/12/08 01:03:36;;;;;;;3.83;2.93;;;8.00;85.60;;;;;;5055088;28;20071;-65
2022/12/08 01:06:04;;;;;;;4.30;3.03;;;8.00;85.20;;;;;;5055259;28;20061;-66
2022/12/08 01:08:29;;;;;;;5.13;3.20;;;8.10;85.10;;;;;;5055439;28;20041;-66
2022/12/08 01:10:55;;;;;;;9.50;3.50;;;8.10;85.10;;;;;;5055125;28;20029;-66
2022/12/08 01:13:21;;;;;;;5.23;3.27;;;8.10;85.00;;;;;;5055546;28;20442;-66
2022/12/08 01:15:46;;;;;;;3.43;2.80;;;8.00;85.00;;;;;;5055628;28;20040;-66
2022/12/08 01:18:12;;;;;;;3.63;2.93;;;8.00;85.00;;;;;;5055079;28;20090;-66
2022/12/08 01:20:38;;;;;;;3.73;2.90;;;8.10;84.90;;;;;;5055160;28;20060;-67
2022/12/08 01:23:03;;;;;;;3.70;2.90;;;8.10;84.80;;;;;;5054610;28;20032;-66
2022/12/08 01:25:29;;;;;;;2.97;2.23;;;8.10;84.80;;;;;;5055237;28;20075;-66
2022/12/08 01:27:55;;;;;;;3.50;2.30;;;8.10;84.60;;;;;;5054993;28;20064;-66
2022/12/08 01:30:20;;;;;;;3.23;2.37;;;8.10;84.50;;;;;;5055031;28;20037;-66
2022/12/08 01:32:46;;;;;;;3.53;2.37;;;8.10;84.30;;;;;;5055220;28;20041;-66
2022/12/08 01:35:13;;;;;;;3.60;2.70;;;8.10;84.10;;;;;;5054920;28;20044;-66
2022/12/08 01:37:39;;;;;;;5.00;2.77;;;8.10;84.40;;;;;;5054707;28;20028;-66
2022/12/08 01:40:05;;;;;;;3.80;2.53;;;8.10;84.70;;;;;;5054927;28;20036;-66
2022/12/08 01:42:33;;;;;;;3.93;2.40;;;8.10;85.00;;;;;;5054741;28;20189;-66
2022/12/08 01:45:23;;;;;;;3.10;2.30;;;8.10;85.00;;;;;;5054441;28;20411;-66
2022/12/08 01:47:54;;;;;;;3.43;2.50;;;8.10;84.80;;;;;;5054207;28;20033;-66
2022/12/08 01:50:21;;;;;;;3.03;2.23;;;8.20;84.90;;;;;;5054648;28;20106;-65
2022/12/08 01:52:54;;;;;;;2.90;2.30;;;8.10;84.70;;;;;;5054518;28;20041;-66
2022/12/08 01:55:21;;;;;;;3.67;2.53;;;8.10;84.50;;;;;;5054545;28;20033;-66
2022/12/08 01:57:52;;;;;;;3.20;2.50;;;8.20;84.60;;;;;;5053394;28;20033;-67
2022/12/08 02:00:20;;;;;;;24.53;18.83;;;8.20;84.20;;;;;;5051442;28;20037;-67
2022/12/08 02:03:12;;;;;;;19.33;16.17;;;8.20;84.00;;;;;;5051489;28;20049;-66
2022/12/08 02:05:39;;;;;;;5.27;3.20;;;8.30;83.80;;;;;;5052963;28;20056;-66
2022/12/08 02:08:10;;;;;;;5.00;2.30;;;8.20;83.90;;;;;;5054485;28;20431;-66
2022/12/08 02:10:38;;;;;;;3.70;2.33;;;8.30;84.30;;;;;;5054254;28;20044;-66
2022/12/08 02:13:07;;;;;;;2.97;2.07;;;8.30;85.00;;;;;;5054113;28;20554;-66
2022/12/08 02:15:39;;;;;;;3.37;2.30;;;8.30;85.70;;;;;;5054316;28;20456;-65
2022/12/08 02:18:15;;;;;;;4.50;2.28;;;8.20;86.30;;;;;;5054102;28;20036;-66
2022/12/08 02:20:44;;;;;;;5.30;2.50;;;8.20;86.70;;;;;;5053675;28;20087;-66
2022/12/08 02:23:36;;;;;;;2.70;1.90;;;8.20;87.00;;;;;;5053834;28;20051;-66
2022/12/08 02:26:39;;;;;;;2.83;2.27;;;8.20;87.50;;;;;;5048200;28;20075;-66
2022/12/08 02:29:23;;;;;;;2.90;2.20;;;8.20;88.00;;;;;;5053799;28;20037;-66
2022/12/08 02:31:54;;;;;;;3.03;2.30;;;8.20;88.50;;;;;;5053539;28;20029;-66
2022/12/08 02:34:44;;;;;;;3.43;2.40;;;8.20;90.00;;;;;;5053871;28;20032;-66
2022/12/08 02:37:28;;;;;;;3.00;2.20;;;8.20;90.00;;;;;;5053559;28;20395;-66
2022/12/08 02:40:28;;;;;;;2.57;2.00;;;8.10;90.20;;;;;;5053510;28;20036;-66
2022/12/08 02:43:11;;;;;;;3.60;2.47;;;8.10;90.90;;;;;;5053248;28;20041;-66
2022/12/08 02:45:45;;;;;;;3.23;2.07;;;8.10;90.70;;;;;;5053294;28;20045;-66
2022/12/08 02:48:11;;;;;;;3.70;2.60;;;8.10;90.80;;;;;;5053554;28;20115;-66
2022/12/08 02:50:36;;;;;;;4.47;2.20;;;8.10;90.70;;;;;;5053494;28;20043;-66
2022/12/08 02:53:02;;;;;;;2.63;2.10;;;8.10;90.70;;;;;;5053345;28;20442;-66
2022/12/08 02:56:00;;;;;;;2.97;2.10;;;8.10;90.40;;;;;;5053245;28;20112;-66
2022/12/08 02:58:49;;;;;;;2.73;1.97;;;8.10;90.40;;;;;;5053323;28;20033;-66
2022/12/08 03:01:27;;;;;;;3.00;1.90;;;8.10;90.20;;;;;;5053270;28;20036;-66
2022/12/08 03:04:06;;;;;;;3.27;2.43;;;8.10;89.80;;;;;;5052926;28;20399;-66
2022/12/08 03:06:41;;;;;;;3.90;2.23;;;8.10;89.60;;;;;;5053392;28;20104;-67
2022/12/08 03:09:20;;;;;;;3.63;2.10;;;8.10;89.40;;;;;;5053190;28;20041;-66
2022/12/08 03:12:12;;;;;;;4.07;1.80;;;8.10;89.40;;;;;;5052940;28;20029;-66
2022/12/08 03:14:43;;;;;;;2.80;2.10;;;8.10;89.60;;;;;;5052993;28;20483;-66
2022/12/08 03:17:10;;;;;;;3.20;2.20;;;8.20;89.20;;;;;;5053091;28;20068;-65
2022/12/08 03:19:38;;;;;;;3.20;2.17;;;8.10;89.00;;;;;;5053115;28;20029;-65
2022/12/08 03:22:06;;;;;;;2.30;1.77;;;8.20;88.90;;;;;;5053177;28;20128;-66
2022/12/08 03:24:37;;;;;;;2.37;1.90;;;8.10;89.20;;;;;;5052893;28;20033;-66
2022/12/08 03:27:07;;;;;;;2.37;1.73;;;8.10;89.40;;;;;;5053169;28;20040;-66
2022/12/08 03:29:33;;;;;;;4.33;1.83;;;8.20;89.40;;;;;;5052833;28;20119;-66
2022/12/08 03:32:19;;;;;;;3.07;2.00;;;8.10;89.40;;;;;;5052922;28;20037;-66
2022/12/08 03:34:47;;;;;;;2.40;1.70;;;8.10;89.20;;;;;;5052772;28;20040;-66
2022/12/08 03:37:13;;;;;;;2.83;2.07;;;8.10;89.50;;;;;;5052590;28;20048;-67
2022/12/08 03:39:39;;;;;;;2.63;1.53;;;8.10;89.10;;;;;;5052648;28;20541;-66
2022/12/08 03:42:05;;;;;;;2.07;1.60;;;8.10;89.00;;;;;;5052452;28;20128;-66
2022/12/08 03:44:30;;;;;;;2.67;1.63;;;8.10;88.70;;;;;;5052518;28;20107;-66
2022/12/08 03:46:56;;;;;;;3.00;1.47;;;8.10;88.40;;;;;;5052312;28;20045;-66
2022/12/08 03:49:22;;;;;;;2.90;1.83;;;8.10;88.30;;;;;;5052686;28;20041;-66
2022/12/08 03:51:48;;;;;;;4.03;2.10;;;8.10;88.30;;;;;;5052732;28;20029;-66
2022/12/08 03:54:13;;;;;;;1.60;1.30;;;8.20;88.60;;;;;;5052399;28;20503;-66
2022/12/08 03:56:39;;;;;;;2.33;1.40;;;8.20;88.50;;;;;;5052512;28;20037;-66
2022/12/08 03:59:05;;;;;;;1.40;1.30;;;8.10;88.40;;;;;;5052550;28;20080;-66
2022/12/08 04:01:31;;;;;;;1.67;1.27;;;8.10;88.30;;;;;;5052720;28;20048;-66
2022/12/08 04:03:57;;;;;;;2.37;1.40;;;8.10;87.80;;;;;;5052724;28;20411;-66
2022/12/08 04:06:23;;;;;;;1.30;0.97;;;8.20;87.80;;;;;;5052228;28;20148;-66
2022/12/08 04:08:50;;;;;;;5.10;1.40;;;8.20;87.70;;;;;;5052344;28;20029;-66
2022/12/08 04:11:16;;;;;;;1.67;1.10;;;8.20;88.00;;;;;;5052673;28;20033;-66
2022/12/08 04:13:42;;;;;;;1.90;1.47;;;8.20;87.50;;;;;;5052506;28;20037;-66
2022/12/08 04:16:13;;;;;;;1.87;1.10;;;8.10;87.60;;;;;;5052412;28;20459;-65
2022/12/08 04:18:39;;;;;;;1.80;1.20;;;8.20;87.70;;;;;;5052423;28;20533;-66
2022/12/08 04:21:04;;;;;;;1.73;1.00;;;8.20;87.60;;;;;;5052553;28;20045;-66
2022/12/08 04:23:30;;;;;;;2.07;1.23;;;8.10;87.80;;;;;;5052504;28;20049;-66
2022/12/08 04:25:56;;;;;;;1.70;1.20;;;8.20;88.30;;;;;;5052205;28;20033;-66
2022/12/08 04:28:21;;;;;;;1.90;1.13;;;8.10;88.60;;;;;;5052520;28;20412;-66
2022/12/08 04:30:48;;;;;;;1.50;1.23;;;8.20;88.90;;;;;;5052521;28;20051;-66
2022/12/08 04:33:14;;;;;;;1.20;0.90;;;8.10;88.60;;;;;;5052264;28;20037;-66
2022/12/08 04:35:40;;;;;;;1.93;1.33;;;8.20;88.60;;;;;;5052096;28;20064;-66
2022/12/08 04:38:05;;;;;;;1.40;1.03;;;8.20;88.50;;;;;;5051980;28;20112;-66
2022/12/08 04:40:32;;;;;;;1.60;0.90;;;8.10;88.60;;;;;;5051955;28;20094;-66
2022/12/08 04:42:58;;;;;;;1.27;0.97;;;8.10;88.60;;;;;;5052229;28;20044;-66
2022/12/08 04:45:23;;;;;;;1.23;0.80;;;8.20;88.60;;;;;;5052212;28;20049;-66
2022/12/08 04:47:49;;;;;;;1.00;0.80;;;8.10;88.50;;;;;;5052234;28;20059;-65
2022/12/08 04:50:15;;;;;;;0.90;0.70;;;8.10;88.50;;;;;;5052235;28;20106;-66
2022/12/08 04:52:40;;;;;;;1.10;1.00;;;8.10;88.60;;;;;;5051561;28;20048;-66
2022/12/08 04:55:06;;;;;;;1.47;1.00;;;8.10;88.80;;;;;;5051922;28;20040;-65
2022/12/08 04:57:32;;;;;;;1.97;1.00;;;8.20;89.00;;;;;;5051855;28;20487;-67
2022/12/08 04:59:57;;;;;;;1.17;0.83;;;8.10;88.80;;;;;;5055408;28;20029;-66
2022/12/08 05:02:23;;;;;;;1.57;1.10;;;8.20;88.80;;;;;;5055556;28;20037;-66
2022/12/08 05:04:49;;;;;;;1.50;0.97;;;8.20;88.80;;;;;;5055770;28;20040;-67
2022/12/08 05:07:14;;;;;;;1.20;1.00;;;8.20;88.60;;;;;;5055295;28;20048;-66
2022/12/08 05:09:40;;;;;;;1.27;0.70;;;8.20;88.60;;;;;;5055348;28;20041;-65
2022/12/08 05:12:06;;;;;;;1.67;0.80;;;8.20;88.50;;;;;;5055822;28;20446;-66
2022/12/08 05:14:31;;;;;;;1.17;0.80;;;8.20;88.30;;;;;;5055521;28;20033;-66
2022/12/08 05:16:57;;;;;;;1.10;0.80;;;8.20;88.20;;;;;;5055390;28;20077;-66
2022/12/08 05:19:23;;;;;;;1.23;0.70;;;8.20;88.10;;;;;;5055002;28;20032;-65
2022/12/08 05:21:49;;;;;;;1.17;0.80;;;8.20;88.00;;;;;;5054911;28;20041;-66
2022/12/08 05:24:14;;;;;;;1.27;0.57;;;8.20;87.70;;;;;;5055171;28;20095;-66
2022/12/08 05:26:40;;;;;;;3.47;0.60;;;8.20;87.60;;;;;;5055222;28;20040;-66
2022/12/08 05:29:06;;;;;;;0.70;0.50;;;8.20;87.50;;;;;;5055249;28;20475;-66
2022/12/08 05:31:31;;;;;;;0.40;0.40;;;8.10;87.20;;;;;;5036973;28;20029;-65
2022/12/08 05:33:57;;;;;;;1.07;0.83;;;8.10;87.40;;;;;;5054974;28;20475;-66
2022/12/08 05:36:23;;;;;;;0.90;0.80;;;8.20;87.50;;;;;;5055052;28;20033;-65
2022/12/08 05:38:48;;;;;;;2.70;0.50;;;8.10;87.70;;;;;;5054811;28;20040;-64
2022/12/08 05:41:19;;;;;;;0.60;0.60;;;8.20;87.90;;;;;;5054769;28;20037;-66
2022/12/08 05:43:46;;;;;;;1.97;0.60;;;8.20;87.90;;;;;;5054664;28;20399;-66
2022/12/08 05:46:12;;;;;;;1.10;0.60;;;8.20;88.40;;;;;;5054710;28;20049;-66
2022/12/08 05:48:38;;;;;;;1.63;0.53;;;8.20;88.10;;;;;;5054852;28;20114;-66
2022/12/08 05:51:05;;;;;;;1.50;0.63;;;8.20;87.50;;;;;;5054930;28;20037;-67
2022/12/08 05:53:31;;;;;;;2.10;0.70;;;8.20;87.50;;;;;;5054452;28;20502;-65
2022/12/08 05:55:57;;;;;;;1.67;0.90;;;8.20;87.80;;;;;;5054485;28;20037;-66
2022/12/08 05:58:23;;;;;;;1.33;0.80;;;8.20;87.90;;;;;;5054269;28;20032;-66
2022/12/08 06:00:49;;;;;;;0.87;0.60;;;8.20;88.00;;;;;;5054430;28;20037;-67
2022/12/08 06:03:17;;;;;;;1.43;0.77;;;8.20;88.20;;;;;;5054522;28;20087;-67
2022/12/08 06:05:44;;;;;;;0.90;0.70;;;8.10;88.20;;;;;;5054435;28;20033;-66
2022/12/08 06:08:10;;;;;;;2.17;1.20;;;8.10;89.00;;;;;;5054248;28;20040;-66
2022/12/08 06:10:43;;;;;;;1.53;1.00;;;8.20;88.60;;;;;;5054186;28;20025;-66
2022/12/08 06:13:10;;;;;;;1.40;0.90;;;8.20;88.40;;;;;;5054467;28;20047;-66
2022/12/08 06:15:37;;;;;;;1.20;0.90;;;8.20;88.40;;;;;;5053943;28;20032;-66
2022/12/08 06:18:03;;;;;;;1.70;1.00;;;8.10;88.60;;;;;;5053943;28;20108;-64
2022/12/08 06:20:29;;;;;;;2.10;1.40;;;8.20;88.50;;;;;;5054153;28;20108;-66
2022/12/08 06:22:55;;;;;;;2.33;1.13;;;8.20;88.30;;;;;;5053523;28;20466;-65
2022/12/08 06:25:22;;;;;;;2.33;0.93;;;8.20;88.30;;;;;;5053797;28;20032;-66
2022/12/08 06:27:47;;;;;;;1.70;0.83;;;8.20;88.20;;;;;;5054209;28;20033;-66
2022/12/08 06:30:14;;;;;;;1.53;0.90;;;8.20;88.10;;;;;;5053899;28;20036;-66
2022/12/08 06:32:40;;;;;;;1.33;0.87;;;8.10;87.80;;;;;;5053948;28;20066;-65
2022/12/08 06:35:06;;;;;;;1.20;0.80;;;8.10;88.00;;;;;;5054275;28;20021;-66
2022/12/08 06:37:31;;;;;;;4.07;1.03;;;8.20;88.10;;;;;;5053832;28;20040;-66
2022/12/08 06:39:57;;;;;;;0.93;0.70;;;8.10;88.30;;;;;;5054019;28;20450;-66
2022/12/08 06:45:07;;;;;;;1.00;0.60;;;8.20;88.70;;;;;;5053478;28;20051;-65
2022/12/08 06:47:33;;;;;;;1.17;0.60;;;8.10;89.10;;;;;;5053936;28;20041;-66
2022/12/08 06:49:59;;;;;;;1.07;0.80;;;8.10;88.90;;;;;;5053656;28;20044;-66
2022/12/08 06:52:25;;;;;;;1.10;0.80;;;8.10;88.70;;;;;;5053523;28;20113;-65
2022/12/08 06:54:51;;;;;;;1.20;0.87;;;8.10;88.80;;;;;;5053297;28;20033;-64
2022/12/08 06:57:17;;;;;;;0.90;0.70;;;8.10;88.80;;;;;;5035448;28;20045;-65
2022/12/08 06:59:43;;;;;;;5.40;0.67;;;8.10;88.70;;;;;;5053318;28;20515;-66
2022/12/08 07:02:09;;;;;;;1.23;0.50;;;8.10;88.70;;;;;;5053120;28;20039;-64
2022/12/08 07:04:35;;;;;;;0.80;0.50;;;8.10;88.90;;;;;;5053196;28;20041;-66
2022/12/08 07:07:01;;;;;;;0.67;0.53;;;8.10;89.00;;;;;;5053309;28;20036;-66
2022/12/08 07:09:27;;;;;;;1.27;0.60;;;8.10;88.90;;;;;;5035304;28;20075;-66
2022/12/08 07:11:52;;;;;;;0.70;0.53;;;8.10;88.90;;;;;;5053192;28;20436;-66
2022/12/08 07:14:22;;;;;;;3.37;1.03;;;8.10;89.10;;;;;;5053400;28;20033;-65
2022/12/08 07:16:48;;;;;;;0.83;0.60;;;8.10;88.80;;;;;;5053019;28;20116;-65
2022/12/08 07:19:13;;;;;;;1.37;0.67;;;8.10;88.70;;;;;;5053030;28;20560;-66
2022/12/08 07:21:39;;;;;;;1.23;0.70;;;8.10;89.00;;;;;;5052402;28;20506;-66
2022/12/08 07:24:05;;;;;;;2.33;0.80;;;8.10;89.30;;;;;;5053003;28;20045;-66
2022/12/08 07:26:31;;;;;;;1.43;0.80;;;8.10;89.40;;;;;;5053132;28;20055;-66
2022/12/08 07:28:58;;;;;;;2.57;1.10;;;8.10;89.60;;;;;;5053003;28;20044;-66
2022/12/08 07:31:24;;;;;;;4.60;1.47;;;8.10;89.70;;;;;;5052727;28;20047;-65
2022/12/08 07:33:51;;;;;;;6.13;2.17;;;8.00;89.80;;;;;;5052702;28;20041;-66
2022/12/08 07:36:17;;;;;;;6.00;2.70;;;8.00;90.00;;;;;;5052752;28;20166;-66
2022/12/08 07:38:43;;;;;;;6.83;3.00;;;8.10;90.00;;;;;;5052816;28;20041;-66
2022/12/08 07:41:18;;;;;;;6.10;2.77;;;8.00;90.00;;;;;;5052623;28;20040;-66
2022/12/08 07:58:17;;;;;;;1.47;0.70;;;8.00;89.40;;;;;;5110899;27;20441;-65
2022/12/08 08:00:43;;;;;;;1.23;0.57;;;8.40;87.40;;;;;;5110852;28;20032;-65
2022/12/08 08:03:10;;;;;;;1.13;0.50;;;8.40;87.10;;;;;;5110345;28;20110;-66
2022/12/08 08:05:36;;;;;;;1.20;0.67;;;8.40;86.70;;;;;;5110500;28;20071;-66
2022/12/08 08:08:02;;;;;;;2.80;1.07;;;8.40;87.10;;;;;;5109965;28;20016;-66
2022/12/08 08:10:28;;;;;;;1.93;1.07;;;8.40;87.00;;;;;;5109085;28;20028;-65
2022/12/08 08:12:57;;;;;;;1.70;1.00;;;8.40;87.40;;;;;;5107784;28;20701;-65
2022/12/08 08:15:22;;;;;;;2.00;1.10;;;8.40;87.70;;;;;;5107183;28;20034;-66
2022/12/08 08:17:51;;;;;;;2.60;1.60;;;8.40;88.00;;;;;;5105027;28;20111;-66
2022/12/08 08:20:18;;;;;;;2.67;1.50;;;8.40;88.30;;;;;;5107196;28;20028;-66
2022/12/08 08:22:48;;;;;;;4.33;3.20;;;8.40;88.30;;;;;;5107142;28;20024;-66
2022/12/08 08:25:15;;;;;;;2.97;1.50;;;8.40;88.10;;;;;;5109408;28;20030;-65
2022/12/08 08:27:42;;;;;;;1.80;0.90;;;8.40;87.80;;;;;;5109245;28;20031;-66
2022/12/08 08:30:10;;;;;;;1.17;0.60;;;8.40;87.80;;;;;;5109696;28;20028;-65
2022/12/08 08:32:36;;;;;;;1.03;0.57;;;8.40;87.80;;;;;;5109330;28;20499;-65
2022/12/08 08:35:02;;;;;;;3.30;0.43;;;8.40;87.30;;;;;;5109610;28;20028;-66
2022/12/08 08:37:28;;;;;;;3.47;0.70;;;8.40;87.20;;;;;;5109653;28;20032;-66
2022/12/08 08:39:55;;;;;;;2.10;0.60;;;8.40;87.50;;;;;;5109592;28;20024;-65
2022/12/08 08:42:21;;;;;;;4.80;0.60;;;8.40;87.80;;;;;;5109569;28;20024;-65
2022/12/08 08:44:46;;;;;;;1.70;0.60;;;8.40;88.00;;;;;;5109880;28;21063;-66
2022/12/08 08:47:12;;;;;;;1.40;0.60;;;8.40;87.80;;;;;;5109473;28;20024;-66
2022/12/08 08:49:38;;;;;;;1.33;0.77;;;8.40;87.60;;;;;;5109486;28;20481;-66
2022/12/08 08:52:04;;;;;;;2.00;0.90;;;8.50;87.80;;;;;;5109474;28;20028;-66
2022/12/08 08:54:30;;;;;;;4.30;1.17;;;8.40;87.90;;;;;;5107903;28;20495;-66
2022/12/08 08:56:58;;;;;;;1.60;0.70;;;8.50;87.90;;;;;;5109048;28;20127;-66
2022/12/08 08:59:25;;;;;;;2.77;0.90;;;8.50;87.80;;;;;;5095280;28;20537;-65
2022/12/08 09:01:51;;;;;;;1.70;0.90;;;8.50;87.80;;;;;;5095510;28;20028;-66
2022/12/08 09:04:16;;;;;;;2.47;1.30;;;8.60;88.10;;;;;;5095282;28;20031;-66
2022/12/08 09:06:44;;;;;;;2.90;1.40;;;8.60;88.20;;;;;;5095808;28;20020;-65
2022/12/08 09:09:09;;;;;;;2.50;1.37;;;8.70;88.20;;;;;;5095415;28;20461;-66
2022/12/08 09:11:36;;;;;;;2.10;1.30;;;8.70;88.60;;;;;;5095329;28;20080;-65
2022/12/08 09:14:01;;;;;;;6.13;4.47;;;8.70;88.20;;;;;;5095574;28;20465;-66
2022/12/08 09:16:27;;;;;;;3.07;2.40;;;8.80;88.00;;;;;;5095342;28;20032;-66
2022/12/08 09:18:53;;;;;;;2.23;1.27;;;8.80;87.80;;;;;;5095344;28;20472;-65
2022/12/08 09:21:22;;;;;;;2.20;1.30;;;8.90;87.50;;;;;;5095509;28;20035;-65
2022/12/08 09:23:49;;;;;;;4.90;1.47;;;8.90;87.20;;;;;;5095008;28;20018;-65
2022/12/08 09:26:14;;;;;;;3.67;1.23;;;9.00;86.90;;;;;;5095355;28;20052;-66
2022/12/08 09:28:45;;;;;;;1.70;1.10;;;9.10;86.70;;;;;;5095516;28;20059;-65
2022/12/08 09:31:12;;;;;;;3.73;1.60;;;9.10;86.50;;;;;;5095233;28;20028;-66
2022/12/08 09:33:38;;;;;;;3.20;2.57;;;9.20;85.80;;;;;;5095397;28;20016;-66
2022/12/08 09:36:04;;;;;;;2.77;1.43;;;9.30;85.80;;;;;;5095197;28;20032;-66
2022/12/08 09:38:31;;;;;;;2.13;1.27;;;9.30;85.40;;;;;;5093665;28;20028;-66
2022/12/08 09:40:57;;;;;;;2.40;1.20;;;9.30;85.30;;;;;;5095095;28;20024;-65
2022/12/08 09:43:29;;;;;;;4.07;1.67;;;9.40;85.20;;;;;;5095386;28;20381;-65
2022/12/08 09:45:56;;;;;;;2.67;1.23;;;9.40;85.30;;;;;;5095234;28;20019;-65
2022/12/08 09:48:27;;;;;;;4.37;1.97;;;9.50;85.00;;;;;;5094665;28;20047;-65
2022/12/08 09:50:57;;;;;;;4.67;1.80;;;9.50;84.60;;;;;;5093569;28;20016;-65
2022/12/08 09:53:54;;;;;;;2.37;1.50;;;9.60;84.40;;;;;;5094953;28;20028;-65
2022/12/08 09:56:28;;;;;;;2.03;1.10;;;9.60;83.90;;;;;;5094535;28;20493;-66
2022/12/08 09:59:19;;;;;;;1.50;1.00;;;9.70;83.70;;;;;;5095162;28;20038;-65
2022/12/08 10:01:44;;;;;;;2.10;1.23;;;9.70;83.70;;;;;;5094825;28;20451;-65
2022/12/08 10:04:21;;;;;;;1.47;1.00;;;9.70;83.90;;;;;;5093828;28;20028;-66
2022/12/08 10:06:56;;;;;;;2.43;1.27;;;9.80;83.90;;;;;;5093857;28;20028;-66
2022/12/08 10:09:33;;;;;;;1.30;1.13;;;9.80;83.60;;;;;;5093225;28;20104;-66
2022/12/08 10:12:12;;;;;;;1.30;1.00;;;9.90;83.50;;;;;;5094508;28;20067;-65
2022/12/08 10:15:07;;;;;;;1.97;0.83;;;9.90;83.50;;;;;;5094425;28;20098;-65
2022/12/08 10:17:37;;;;;;;2.70;0.90;;;10.00;83.20;;;;;;5094310;28;20032;-66
2022/12/08 10:20:16;;;;;;;1.67;0.90;;;10.00;83.10;;;;;;5094133;28;20020;-66
2022/12/08 10:22:45;;;;;;;1.10;0.80;;;10.10;83.20;;;;;;5093179;28;20485;-66
2022/12/08 10:25:19;;;;;;;1.20;0.85;;;10.20;83.20;;;;;;5092639;28;20047;-65
2022/12/08 10:27:52;;;;;;;1.17;0.85;;;10.10;83.20;;;;;;5094242;28;20454;-66
2022/12/08 10:30:19;;;;;;;3.08;1.00;;;10.10;83.80;;;;;;5094785;28;20012;-66
2022/12/08 10:32:48;;;;;;;1.60;0.90;;;10.20;83.70;;;;;;5094104;28;20027;-66
2022/12/08 10:35:16;;;;;;;1.15;0.80;;;10.20;83.20;;;;;;5094033;28;20024;-66
2022/12/08 10:38:02;;;;;;;2.67;1.00;;;10.20;83.10;;;;;;5092934;28;20039;-66
2022/12/08 10:40:34;;;;;;;2.58;0.80;;;10.30;83.20;;;;;;5093436;28;20114;-66
2022/12/08 10:43:02;;;;;;;0.75;0.70;;;10.30;82.80;;;;;;5093143;28;20028;-66
2022/12/08 10:45:28;;;;;;;1.33;0.80;;;10.40;82.40;;;;;;5093940;28;20489;-66
2022/12/08 10:47:58;;;;;;;1.17;0.73;;;10.50;82.30;;;;;;5094198;28;20035;-66
2022/12/08 10:50:33;;;;;;;2.25;0.90;;;10.60;81.80;;;;;;5094153;28;20032;-66
2022/12/08 10:53:12;;;;;;;2.20;1.02;;;10.60;81.80;;;;;;5093654;28;20027;-66
2022/12/08 10:55:44;;;;;;;1.60;0.90;;;10.70;82.00;;;;;;5093565;28;20024;-66
2022/12/08 10:58:41;;;;;;;1.67;1.20;;;10.80;81.80;;;;;;5093504;28;20090;-67
2022/12/08 11:01:21;;;;;;;2.00;1.02;;;10.80;81.30;;;;;;5090437;28;20043;-66
2022/12/08 11:03:51;;;;;;;11.23;7.40;;;10.90;80.90;;;;;;5093084;28;20114;-66
2022/12/08 11:06:30;;;;;;;86.80;41.05;;;11.00;81.00;;;;;;5093462;28;20028;-66
2022/12/08 11:09:02;;;;;;;17.42;11.80;;;11.00;80.90;;;;;;5093640;28;20070;-66
2022/12/08 11:11:50;;;;;;;5.97;4.55;;;11.10;81.20;;;;;;5093528;28;20048;-66
2022/12/08 11:14:32;;;;;;;2.42;2.17;;;11.10;81.20;;;;;;5093251;28;20393;-66
2022/12/08 11:17:14;;;;;;;3.88;1.80;;;11.00;80.60;;;;;;5093431;28;20040;-65
2022/12/08 11:19:44;;;;;;;4.78;1.20;;;11.00;81.20;;;;;;5093559;28;20073;-66
2022/12/08 11:22:25;;;;;;;1.50;1.02;;;10.90;81.20;;;;;;5093236;28;20023;-66
2022/12/08 11:25:06;;;;;;;1.42;0.77;;;10.90;81.70;;;;;;5093208;28;20110;-66
2022/12/08 11:27:35;;;;;;;2.30;1.10;;;10.80;82.30;;;;;;5093161;28;20021;-66
2022/12/08 11:30:02;;;;;;;1.30;0.80;;;10.80;83.50;;;;;;5093312;28;20452;-66
2022/12/08 11:32:28;;;;;;;2.97;1.02;;;10.80;83.30;;;;;;5093321;28;20020;-66
2022/12/08 11:35:00;;;;;;;2.17;1.17;;;10.80;83.40;;;;;;5093116;28;20035;-67
2022/12/08 11:37:39;;;;;;;1.20;0.80;;;10.80;83.50;;;;;;5093066;28;20036;-66
2022/12/08 11:40:17;;;;;;;3.00;1.35;;;10.80;83.50;;;;;;5093259;28;20469;-66
2022/12/08 11:43:37;;;;;;;3.08;1.17;;;10.80;82.70;;;;;;5093104;28;20020;-66
2022/12/08 11:46:14;;;;;;;1.17;0.85;;;10.80;81.90;;;;;;5039048;28;20033;-67
2022/12/08 11:49:00;;;;;;;1.80;0.80;;;10.80;81.60;;;;;;5093123;28;20431;-67
2022/12/08 11:52:11;;;;;;;1.10;0.93;;;10.80;81.90;;;;;;5092935;28;20035;-67
2022/12/08 11:54:45;;;;;;;1.58;0.90;;;10.80;82.50;;;;;;5093029;28;20024;-66
2022/12/08 11:57:19;;;;;;;2.35;1.20;;;10.90;82.60;;;;;;5092760;28;20076;-66
2022/12/08 11:59:49;;;;;;;1.75;0.90;;;11.00;82.60;;;;;;5092989;28;20020;-66
2022/12/08 12:02:22;;;;;;;3.22;1.08;;;11.00;82.00;;;;;;5092812;28;20035;-66
2022/12/08 12:05:32;;;;;;;3.25;1.00;;;11.10;81.60;;;;;;5089050;28;20044;-66
2022/12/08 12:08:46;;;;;;;1.90;0.88;;;11.10;82.00;;;;;;5092701;28;20401;-66
2022/12/08 12:14:49;;;;;;;1.13;0.70;;;11.10;82.10;;;;;;5092886;28;20108;-66
2022/12/08 12:17:45;;;;;;;2.13;1.10;;;11.10;82.00;;;;;;5092472;28;20071;-66
2022/12/08 12:20:40;;;;;;;1.30;0.90;;;11.10;81.80;;;;;;5092825;28;20020;-66
2022/12/08 12:23:36;;;;;;;2.22;0.95;;;11.10;81.90;;;;;;5092654;28;20020;-66
2022/12/08 12:26:05;;;;;;;1.85;1.08;;;11.00;82.30;;;;;;5092701;28;20103;-66
2022/12/08 12:28:48;;;;;;;1.75;1.23;;;11.00;82.40;;;;;;5091893;28;20377;-66
2022/12/08 12:31:20;;;;;;;5.35;0.95;;;11.00;82.90;;;;;;5092276;28;20107;-66
2022/12/08 12:33:47;;;;;;;1.58;1.02;;;11.00;83.60;;;;;;5094955;28;20016;-67
2022/12/08 12:36:13;;;;;;;1.50;1.00;;;11.00;83.70;;;;;;5096073;28;20024;-66
2022/12/08 12:39:00;;;;;;;2.15;1.30;;;11.00;83.20;;;;;;5095938;28;20517;-66
2022/12/08 12:41:57;;;;;;;2.90;1.23;;;11.00;83.40;;;;;;5095822;28;20069;-66
2022/12/08 12:44:37;;;;;;;1.92;1.25;;;11.00;83.20;;;;;;5090919;28;20028;-66
2022/12/08 12:47:09;;;;;;;3.47;1.50;;;11.00;83.40;;;;;;5096046;28;20436;-66
2022/12/08 12:49:44;;;;;;;2.20;1.08;;;11.00;83.40;;;;;;5095781;28;20028;-66
2022/12/08 12:52:22;;;;;;;2.65;1.33;;;11.00;83.50;;;;;;5095515;28;20414;-66
2022/12/08 12:54:50;;;;;;;3.63;1.42;;;11.00;83.70;;;;;;5095855;28;20031;-66
2022/12/08 12:57:19;;;;;;;2.60;1.50;;;11.00;83.60;;;;;;5095273;28;20056;-65
2022/12/08 12:59:54;;;;;;;3.35;1.73;;;11.00;83.70;;;;;;5091670;28;20436;-65
2022/12/08 13:02:24;;;;;;;2.53;1.58;;;10.90;83.80;;;;;;5091183;28;20412;-67
2022/12/08 13:05:14;;;;;;;1.80;1.23;;;10.90;83.70;;;;;;5092211;28;20038;-65
2022/12/08 13:07:48;;;;;;;3.28;1.42;;;10.90;83.70;;;;;;5094034;28;20486;-67
2022/12/08 13:10:33;;;;;;;4.65;1.40;;;10.90;83.40;;;;;;5094608;28;20031;-66
2022/12/08 13:13:16;;;;;;;2.25;1.08;;;10.90;83.40;;;;;;5094660;28;20028;-66
2022/12/08 13:15:45;;;;;;;1.65;1.00;;;10.80;83.40;;;;;;5094106;28;20248;-66
2022/12/08 13:18:25;;;;;;;1.77;1.10;;;10.90;83.90;;;;;;5095014;28;20470;-66
2022/12/08 13:20:53;;;;;;;1.40;1.10;;;10.80;84.20;;;;;;5095154;28;20482;-66
2022/12/08 13:23:41;;;;;;;2.53;1.33;;;10.80;84.20;;;;;;5092823;28;20036;-66
2022/12/08 13:26:21;;;;;;;2.70;1.27;;;10.80;84.20;;;;;;5091962;28;20024;-66
2022/12/08 13:29:14;;;;;;;2.17;1.30;;;10.80;84.60;;;;;;5094502;28;20393;-66
2022/12/08 13:31:49;;;;;;;3.08;1.45;;;10.80;84.10;;;;;;5079162;28;20050;-65
2022/12/08 13:34:19;;;;;;;4.80;1.77;;;10.80;84.40;;;;;;5094985;28;20027;-66
2022/12/08 13:36:56;;;;;;;3.55;1.88;;;10.70;84.50;;;;;;5095219;28;20032;-66
2022/12/08 13:39:28;;;;;;;2.83;1.67;;;10.80;85.10;;;;;;5095227;28;20028;-66
2022/12/08 13:42:02;;;;;;;3.55;2.00;;;10.80;85.10;;;;;;5094077;28;20031;-65